Time;durP1;ratioP1;P1;durP2;ratioP2;P2;SDS_P1;SDS_P2;PMS_P1;PMS_P2;Temp;Humidity;BMP_temperature;BMP_pressure;BME280_temperature;BME280_humidity;BME280_pressure;Samples;Min_cycle;Max_cycle;Signal;HPM_P1;HPM_P2
2023/10/02 00:01:53;;;;;;;7.78;2.63;;;;;;;;;;4843497;29;20303;-59
2023/10/02 00:04:24;;;;;;;6.05;2.50;;;;;;;;;;4843174;29;20211;-62
2023/10/02 00:07:05;;;;;;;5.75;2.20;;;;;;;;;;4843514;29;20218;-61
2023/10/02 00:09:37;;;;;;;6.63;2.05;;;;;;;;;;4843341;29;20236;-61
2023/10/02 00:12:11;;;;;;;4.60;2.22;;;;;;;;;;4843376;29;20227;-63
2023/10/02 00:14:42;;;;;;;4.88;2.30;;;;;;;;;;4856562;29;20203;-62
2023/10/02 00:17:18;;;;;;;6.35;2.22;;;;;;;;;;4843201;29;20565;-63
2023/10/02 00:19:57;;;;;;;5.45;2.15;;;;;;;;;;4843107;29;20222;-61
2023/10/02 00:22:43;;;;;;;5.00;2.20;;;;;;;;;;4843008;29;20661;-62
2023/10/02 00:25:21;;;;;;;4.38;1.90;;;;;;;;;;4843052;29;20215;-63
2023/10/02 00:27:51;;;;;;;10.20;2.22;;;;;;;;;;4842879;29;20688;-62
2023/10/02 00:30:21;;;;;;;6.30;2.35;;;;;;;;;;4843232;29;20208;-60
2023/10/02 00:32:50;;;;;;;7.63;2.92;;;;;;;;;;4842933;29;20249;-61
2023/10/02 00:35:17;;;;;;;6.50;2.60;;;;;;;;;;4842751;29;20221;-57
2023/10/02 00:37:44;;;;;;;8.95;3.10;;;;;;;;;;4842274;29;20294;-61
2023/10/02 00:40:20;;;;;;;7.35;2.30;;;;;;;;;;4841898;29;20219;-63
2023/10/02 00:42:56;;;;;;;4.82;2.17;;;;;;;;;;4842620;29;20222;-61
2023/10/02 00:45:38;;;;;;;8.45;2.45;;;;;;;;;;4843123;29;20211;-61
2023/10/02 00:50:55;;;;;;;7.70;2.35;;;;;;;;;;4843159;29;20207;-61
2023/10/02 00:53:39;;;;;;;4.35;1.98;;;;;;;;;;4842624;29;20239;-61
2023/10/02 00:56:23;;;;;;;9.30;2.50;;;;;;;;;;4842739;29;20566;-62
2023/10/02 00:59:00;;;;;;;6.70;2.50;;;;;;;;;;4842650;29;20215;-61
2023/10/02 01:01:35;;;;;;;6.82;2.47;;;;;;;;;;4842853;29;20211;-62
2023/10/02 01:04:10;;;;;;;7.25;2.60;;;;;;;;;;4842671;29;20264;-61
2023/10/02 01:09:27;;;;;;;5.95;2.55;;;;;;;;;;4857034;29;20231;-61
2023/10/02 01:11:58;;;;;;;5.22;2.28;;;;;;;;;;4856789;29;20211;-56
2023/10/02 01:17:21;;;;;;;7.60;2.53;;;;;;;;;;4842692;29;20219;-64
2023/10/02 01:19:57;;;;;;;6.53;2.13;;;;;;;;;;4856841;29;20207;-62
2023/10/02 01:22:28;;;;;;;5.35;2.22;;;;;;;;;;4842475;29;20214;-60
2023/10/02 01:25:13;;;;;;;5.85;2.20;;;;;;;;;;4856702;29;20212;-62
2023/10/02 01:27:48;;;;;;;6.40;2.50;;;;;;;;;;4842397;29;20204;-61
2023/10/02 01:30:21;;;;;;;5.40;2.28;;;;;;;;;;4842795;29;20291;-61
2023/10/02 01:35:46;;;;;;;9.75;2.15;;;;;;;;;;4842508;29;20226;-61
2023/10/02 01:38:22;;;;;;;7.35;2.53;;;;;;;;;;4842790;29;20215;-62
2023/10/02 01:41:10;;;;;;;4.10;2.30;;;;;;;;;;4841293;29;20218;-61
2023/10/02 01:43:43;;;;;;;5.47;2.40;;;;;;;;;;4842288;29;20236;-64
2023/10/02 01:46:17;;;;;;;4.97;2.38;;;;;;;;;;4856386;29;20264;-64
2023/10/02 01:48:48;;;;;;;5.22;2.67;;;;;;;;;;4844305;29;20239;-63
2023/10/02 01:51:20;;;;;;;4.43;2.53;;;;;;;;;;4845845;29;20211;-64
2023/10/02 01:53:55;;;;;;;6.82;2.53;;;;;;;;;;4827557;29;20208;-59
2023/10/02 01:56:27;;;;;;;6.90;2.70;;;;;;;;;;4827197;29;20219;-63
2023/10/02 01:59:09;;;;;;;5.65;2.72;;;;;;;;;;4841160;29;20220;-63
2023/10/02 02:01:57;;;;;;;5.38;2.63;;;;;;;;;;4841432;29;20261;-62
2023/10/02 02:04:32;;;;;;;7.82;3.17;;;;;;;;;;4825923;29;20208;-61
2023/10/02 02:07:01;;;;;;;7.60;2.72;;;;;;;;;;4841108;29;20239;-63
2023/10/02 02:09:37;;;;;;;8.43;3.50;;;;;;;;;;4826953;29;20264;-59
2023/10/02 02:12:07;;;;;;;8.77;3.20;;;;;;;;;;4827069;29;20236;-64
2023/10/02 02:14:49;;;;;;;7.65;2.72;;;;;;;;;;4840912;29;20212;-62
2023/10/02 02:17:19;;;;;;;9.65;3.67;;;;;;;;;;4826785;29;20216;-63
2023/10/02 02:19:49;;;;;;;6.55;3.08;;;;;;;;;;4840940;29;20252;-59
2023/10/02 02:22:17;;;;;;;7.55;2.83;;;;;;;;;;4826730;29;20669;-64
2023/10/02 02:24:46;;;;;;;7.38;2.60;;;;;;;;;;4826724;29;20223;-64
2023/10/02 02:27:15;;;;;;;7.50;3.00;;;;;;;;;;4825966;29;20239;-64
2023/10/02 02:29:43;;;;;;;5.00;2.72;;;;;;;;;;4824391;29;20701;-64
2023/10/02 02:32:10;;;;;;;4.72;2.80;;;;;;;;;;4840616;29;20269;-63
2023/10/02 02:34:37;;;;;;;5.15;2.60;;;;;;;;;;4824961;29;20281;-61
2023/10/02 02:37:06;;;;;;;6.75;2.80;;;;;;;;;;4824906;29;20243;-60
2023/10/02 02:39:37;;;;;;;6.75;2.83;;;;;;;;;;4824537;29;20216;-62
2023/10/02 02:42:18;;;;;;;6.60;2.90;;;;;;;;;;4824508;29;20216;-60
2023/10/02 02:44:48;;;;;;;8.57;3.03;;;;;;;;;;4838532;29;20216;-61
2023/10/02 02:47:16;;;;;;;8.98;3.30;;;;;;;;;;4824895;29;20291;-64
2023/10/02 02:49:48;;;;;;;5.43;2.47;;;;;;;;;;4826275;29;20239;-63
2023/10/02 02:52:19;;;;;;;7.25;3.17;;;;;;;;;;4847350;29;20233;-63
2023/10/02 02:54:47;;;;;;;9.18;2.70;;;;;;;;;;4844548;29;20225;-62
2023/10/02 02:57:18;;;;;;;6.03;2.75;;;;;;;;;;4858628;29;20215;-61
2023/10/02 02:59:46;;;;;;;9.43;3.00;;;;;;;;;;4843901;29;20218;-61
2023/10/02 03:02:21;;;;;;;9.60;2.78;;;;;;;;;;4844610;29;20285;-58
2023/10/02 03:04:56;;;;;;;6.53;2.35;;;;;;;;;;4844345;29;20620;-61
2023/10/02 03:07:29;;;;;;;6.70;2.45;;;;;;;;;;4844364;29;20234;-63
2023/10/02 03:09:58;;;;;;;10.00;2.95;;;;;;;;;;4844105;29;20268;-63
2023/10/02 03:12:27;;;;;;;4.93;2.95;;;;;;;;;;4844480;29;20307;-63
2023/10/02 03:14:55;;;;;;;4.95;3.10;;;;;;;;;;4844180;29;20211;-62
2023/10/02 03:17:30;;;;;;;4.60;2.97;;;;;;;;;;4844193;29;20553;-62
2023/10/02 03:20:00;;;;;;;8.15;2.60;;;;;;;;;;4844070;29;20680;-62
2023/10/02 03:22:27;;;;;;;6.43;2.20;;;;;;;;;;4843992;29;20221;-62
2023/10/02 03:24:57;;;;;;;6.68;2.22;;;;;;;;;;4844386;29;20207;-62
2023/10/02 03:27:24;;;;;;;4.35;2.60;;;;;;;;;;4858049;29;20223;-61
2023/10/02 03:29:52;;;;;;;4.68;2.53;;;;;;;;;;4843799;29;20242;-61
2023/10/02 03:32:20;;;;;;;5.28;2.50;;;;;;;;;;4843594;29;20213;-59
2023/10/02 03:35:02;;;;;;;5.05;2.70;;;;;;;;;;4843643;29;20218;-60
2023/10/02 03:37:29;;;;;;;6.15;2.50;;;;;;;;;;4843590;29;20546;-62
2023/10/02 03:39:59;;;;;;;5.72;2.20;;;;;;;;;;4843771;29;20767;-62
2023/10/02 03:42:32;;;;;;;3.97;2.00;;;;;;;;;;4843713;29;20191;-60
2023/10/02 03:45:04;;;;;;;4.57;2.17;;;;;;;;;;4844215;29;20222;-62
2023/10/02 03:47:35;;;;;;;3.80;2.13;;;;;;;;;;4843605;29;20578;-62
2023/10/02 03:50:11;;;;;;;6.72;2.58;;;;;;;;;;4842343;29;20248;-63
2023/10/02 03:52:45;;;;;;;4.25;2.33;;;;;;;;;;4842138;29;20756;-63
2023/10/02 03:55:15;;;;;;;6.85;2.50;;;;;;;;;;4842975;29;20200;-62
2023/10/02 03:57:47;;;;;;;3.55;2.10;;;;;;;;;;4871286;29;20203;-61
2023/10/02 04:00:18;;;;;;;7.47;2.00;;;;;;;;;;4842700;29;20207;-63
2023/10/02 04:02:51;;;;;;;4.78;1.95;;;;;;;;;;4842956;29;20202;-62
2023/10/02 04:05:42;;;;;;;3.83;2.13;;;;;;;;;;4837931;29;20227;-63
2023/10/02 04:08:31;;;;;;;4.38;1.90;;;;;;;;;;4840641;29;20231;-61
2023/10/02 04:11:03;;;;;;;5.65;2.28;;;;;;;;;;4841657;29;20234;-64
2023/10/02 04:13:32;;;;;;;7.57;2.00;;;;;;;;;;4847831;29;20246;-63
2023/10/02 04:18:58;;;;;;;6.57;2.80;;;;;;;;;;4860448;29;20557;-63
2023/10/02 04:21:28;;;;;;;6.65;2.20;;;;;;;;;;4860551;29;20239;-62
2023/10/02 04:23:57;;;;;;;5.43;2.35;;;;;;;;;;4847753;29;20238;-63
2023/10/02 04:26:28;;;;;;;10.00;4.05;;;;;;;;;;4841920;29;20271;-63
2023/10/02 04:30:06;;;;;;;8.15;3.17;;;;;;;;;;4841885;29;20235;-63
2023/10/02 04:32:04;;;;;;;5.07;2.47;;;;;;;;;;4847357;29;20227;-55
2023/10/02 04:34:36;;;;;;;15.52;6.68;;;;;;;;;;4841495;29;20227;-62
2023/10/02 04:37:19;;;;;;;9.45;4.40;;;;;;;;;;4841843;29;20595;-61
2023/10/02 04:40:13;;;;;;;11.88;3.88;;;;;;;;;;4841289;29;20254;-59
2023/10/02 04:43:14;;;;;;;16.17;5.97;;;;;;;;;;4840927;29;20228;-62
2023/10/02 04:45:44;;;;;;;15.68;6.55;;;;;;;;;;4842109;29;20234;-59
2023/10/02 04:48:12;;;;;;;7.88;4.10;;;;;;;;;;4841953;29;20704;-61
2023/10/02 04:50:45;;;;;;;12.73;9.00;;;;;;;;;;4840259;29;20249;-61
2023/10/02 04:53:19;;;;;;;8.65;3.80;;;;;;;;;;4839903;29;20243;-58
2023/10/02 04:55:48;;;;;;;7.15;3.40;;;;;;;;;;4839900;29;20254;-57
2023/10/02 04:58:20;;;;;;;10.50;3.45;;;;;;;;;;4834575;29;20219;-61
2023/10/02 05:03:36;;;;;;;9.30;4.32;;;;;;;;;;4839886;29;20239;-60
2023/10/02 05:06:04;;;;;;;6.80;3.90;;;;;;;;;;4840594;29;20322;-62
2023/10/02 05:08:40;;;;;;;7.55;4.20;;;;;;;;;;4841950;29;20262;-62
2023/10/02 05:11:23;;;;;;;8.73;3.65;;;;;;;;;;4842037;29;20243;-58
2023/10/02 05:16:35;;;;;;;8.63;3.83;;;;;;;;;;4841053;29;20260;-60
2023/10/02 05:19:04;;;;;;;8.85;3.85;;;;;;;;;;4841010;29;20263;-61
2023/10/02 05:21:50;;;;;;;10.63;4.10;;;;;;;;;;4856686;29;20265;-60
2023/10/02 05:24:18;;;;;;;14.60;4.00;;;;;;;;;;4845271;29;20211;-60
2023/10/02 05:26:46;;;;;;;9.55;4.72;;;;;;;;;;4845923;29;20215;-60
2023/10/02 05:29:17;;;;;;;16.13;6.00;;;;;;;;;;4845783;29;20239;-59
2023/10/02 05:31:47;;;;;;;11.68;5.28;;;;;;;;;;4846165;29;20211;-57
2023/10/02 05:34:25;;;;;;;7.90;4.45;;;;;;;;;;4845985;29;20208;-60
2023/10/02 05:37:11;;;;;;;6.05;3.90;;;;;;;;;;4846047;29;20581;-62
2023/10/02 05:39:40;;;;;;;8.38;4.05;;;;;;;;;;4845743;29;20211;-60
2023/10/02 05:42:15;;;;;;;6.85;3.83;;;;;;;;;;4846285;29;20223;-61
2023/10/02 05:44:44;;;;;;;11.50;4.20;;;;;;;;;;4845747;29;20271;-60
2023/10/02 05:47:15;;;;;;;9.25;3.83;;;;;;;;;;4845754;29;20215;-61
2023/10/02 05:49:47;;;;;;;10.80;4.50;;;;;;;;;;4845480;29;20692;-61
2023/10/02 05:52:20;;;;;;;6.72;3.90;;;;;;;;;;4845485;29;20249;-61
2023/10/02 05:54:53;;;;;;;7.70;3.58;;;;;;;;;;4845776;29;20259;-61
2023/10/02 05:57:22;;;;;;;6.55;3.83;;;;;;;;;;4845776;29;20294;-62
2023/10/02 05:59:54;;;;;;;10.10;4.30;;;;;;;;;;4845237;29;20213;-61
2023/10/02 06:02:23;;;;;;;11.88;4.90;;;;;;;;;;4845487;29;20211;-59
2023/10/02 06:05:07;;;;;;;8.00;3.85;;;;;;;;;;4845326;29;20684;-61
2023/10/02 06:07:43;;;;;;;11.80;4.40;;;;;;;;;;4845181;29;20237;-61
2023/10/02 06:10:25;;;;;;;8.95;3.88;;;;;;;;;;4845125;29;20242;-60
2023/10/02 06:13:03;;;;;;;13.45;4.15;;;;;;;;;;4843432;29;20204;-59
2023/10/02 06:15:46;;;;;;;9.65;4.13;;;;;;;;;;4844901;29;20217;-60
2023/10/02 06:18:24;;;;;;;6.95;3.80;;;;;;;;;;4844924;29;20203;-61
2023/10/02 06:21:00;;;;;;;7.70;3.85;;;;;;;;;;4845139;29;20672;-61
2023/10/02 06:23:37;;;;;;;10.48;4.72;;;;;;;;;;4845304;29;20215;-55
2023/10/02 06:26:09;;;;;;;12.32;5.05;;;;;;;;;;4845300;29;20203;-61
2023/10/02 06:28:37;;;;;;;10.57;4.80;;;;;;;;;;4844997;29;20303;-60
2023/10/02 06:31:06;;;;;;;9.35;4.22;;;;;;;;;;4845002;29;20287;-62
2023/10/02 06:33:37;;;;;;;7.57;4.13;;;;;;;;;;4844753;29;20250;-62
2023/10/02 06:36:09;;;;;;;7.90;4.22;;;;;;;;;;4843989;29;20550;-62
2023/10/02 06:38:36;;;;;;;11.88;4.22;;;;;;;;;;4845339;29;20211;-62
2023/10/02 06:41:12;;;;;;;7.97;4.38;;;;;;;;;;4844751;29;20211;-60
2023/10/02 06:43:40;;;;;;;10.65;5.18;;;;;;;;;;4844810;29;20290;-61
2023/10/02 06:46:13;;;;;;;11.02;4.28;;;;;;;;;;4844585;29;20215;-62
2023/10/02 06:48:46;;;;;;;7.05;4.20;;;;;;;;;;4844904;29;20211;-61
2023/10/02 06:51:14;;;;;;;7.22;4.13;;;;;;;;;;4844494;29;20227;-61
2023/10/02 06:53:43;;;;;;;10.35;5.30;;;;;;;;;;4844669;29;20242;-61
2023/10/02 06:56:11;;;;;;;11.45;4.40;;;;;;;;;;4844685;29;20215;-59
2023/10/02 06:58:49;;;;;;;7.80;4.30;;;;;;;;;;4836476;29;20216;-61
2023/10/02 07:01:18;;;;;;;10.30;4.55;;;;;;;;;;4844718;29;20275;-61
2023/10/02 07:03:52;;;;;;;11.25;5.05;;;;;;;;;;4844467;29;20211;-63
2023/10/02 07:06:21;;;;;;;9.32;4.95;;;;;;;;;;4844574;29;20582;-61
2023/10/02 07:08:48;;;;;;;15.18;5.53;;;;;;;;;;4844327;29;20246;-61
2023/10/02 07:11:18;;;;;;;20.40;6.88;;;;;;;;;;4844107;29;20235;-62
2023/10/02 07:13:55;;;;;;;10.38;4.95;;;;;;;;;;4844158;29;20735;-62
2023/10/02 07:16:24;;;;;;;14.48;5.78;;;;;;;;;;4844326;29;20211;-61
2023/10/02 07:18:53;;;;;;;12.55;4.72;;;;;;;;;;4844144;29;20302;-61
2023/10/02 07:21:21;;;;;;;9.55;4.75;;;;;;;;;;4844008;29;20219;-64
2023/10/02 07:23:49;;;;;;;8.63;4.88;;;;;;;;;;4843999;29;20222;-64
2023/10/02 07:26:45;;;;;;;12.70;4.72;;;;;;;;;;4843988;29;20215;-61
2023/10/02 07:29:08;;;;;;;10.95;4.75;;;;;;;;;;4843954;29;20207;-62
2023/10/02 07:31:36;;;;;;;13.43;5.57;;;;;;;;;;4843773;29;20246;-64
2023/10/02 07:34:07;;;;;;;15.63;5.47;;;;;;;;;;4843849;29;20215;-55
2023/10/02 07:36:44;;;;;;;11.93;4.57;;;;;;;;;;4844113;29;20234;-62
2023/10/02 07:42:01;;;;;;;11.05;4.10;;;;;;;;;;4843964;29;20218;-65
2023/10/02 07:44:36;;;;;;;17.73;4.93;;;;;;;;;;4857720;29;20207;-64
2023/10/02 07:47:16;;;;;;;8.05;4.25;;;;;;;;;;4843410;29;20215;-62
2023/10/02 07:49:49;;;;;;;6.65;3.70;;;;;;;;;;4843405;29;20203;-63
2023/10/02 07:52:35;;;;;;;9.15;4.07;;;;;;;;;;4843518;29;20242;-60
2023/10/02 07:55:03;;;;;;;7.75;4.10;;;;;;;;;;4843466;29;20606;-62
2023/10/02 07:57:30;;;;;;;8.00;3.67;;;;;;;;;;4843395;29;20737;-60
2023/10/02 08:00:06;;;;;;;7.28;3.70;;;;;;;;;;4843361;29;20219;-60
2023/10/02 08:02:33;;;;;;;8.93;3.47;;;;;;;;;;4843447;29;20211;-59
2023/10/02 08:05:03;;;;;;;9.80;3.42;;;;;;;;;;4842947;29;20207;-63
2023/10/02 08:07:30;;;;;;;16.38;4.40;;;;;;;;;;4843187;29;20677;-63
2023/10/02 08:10:15;;;;;;;8.48;4.10;;;;;;;;;;4843170;29;20348;-62
2023/10/02 08:12:57;;;;;;;8.70;3.78;;;;;;;;;;4843417;29;20569;-65
2023/10/02 08:15:27;;;;;;;8.80;3.33;;;;;;;;;;4843255;29;20223;-64
2023/10/02 08:20:36;;;;;;;12.52;3.75;;;;;;;;;;4843036;29;20577;-65
2023/10/02 08:23:21;;;;;;;8.18;3.60;;;;;;;;;;4843329;29;20216;-62
2023/10/02 08:26:06;;;;;;;12.68;4.40;;;;;;;;;;4843174;29;20231;-63
2023/10/02 08:28:37;;;;;;;14.02;4.22;;;;;;;;;;4842964;29;20212;-63
2023/10/02 08:31:13;;;;;;;8.07;3.53;;;;;;;;;;4841878;29;20232;-63
2023/10/02 08:33:43;;;;;;;11.05;4.50;;;;;;;;;;4842996;29;20223;-63
2023/10/02 08:36:28;;;;;;;12.50;4.25;;;;;;;;;;4842995;29;20219;-64
2023/10/02 08:38:56;;;;;;;10.68;4.30;;;;;;;;;;4842803;29;20207;-62
2023/10/02 08:41:43;;;;;;;8.32;4.00;;;;;;;;;;4843107;29;20211;-57
2023/10/02 08:44:12;;;;;;;9.10;4.07;;;;;;;;;;4842939;29;20219;-65
2023/10/02 08:46:43;;;;;;;12.82;4.25;;;;;;;;;;4842666;29;20215;-58
2023/10/02 08:49:12;;;;;;;11.23;4.47;;;;;;;;;;4841331;29;20283;-63
2023/10/02 08:51:48;;;;;;;7.93;3.63;;;;;;;;;;4842757;29;20251;-62
2023/10/02 08:54:17;;;;;;;6.95;4.07;;;;;;;;;;4843063;29;20240;-63
2023/10/02 08:56:48;;;;;;;10.02;3.20;;;;;;;;;;4842670;29;20214;-62
2023/10/02 08:59:18;;;;;;;9.52;3.80;;;;;;;;;;4845819;29;20215;-63
2023/10/02 09:01:49;;;;;;;12.02;4.18;;;;;;;;;;4846577;29;20222;-63
2023/10/02 09:06:58;;;;;;;11.02;3.75;;;;;;;;;;4846658;29;20637;-63
2023/10/02 09:09:35;;;;;;;13.48;3.35;;;;;;;;;;4846497;29;20211;-55
2023/10/02 09:12:03;;;;;;;7.18;3.75;;;;;;;;;;4846382;29;20235;-61
2023/10/02 09:17:16;;;;;;;10.80;3.88;;;;;;;;;;4846207;29;20669;-62
2023/10/02 09:19:53;;;;;;;6.43;3.13;;;;;;;;;;4846082;29;20215;-62
2023/10/02 09:22:25;;;;;;;11.07;4.25;;;;;;;;;;4846288;29;20207;-64
2023/10/02 09:24:59;;;;;;;5.25;2.55;;;;;;;;;;4846008;29;20222;-58
2023/10/02 09:27:28;;;;;;;6.63;2.88;;;;;;;;;;4846515;29;20612;-65
2023/10/02 09:32:52;;;;;;;8.38;2.83;;;;;;;;;;4844936;29;20234;-63
2023/10/02 09:35:39;;;;;;;12.40;3.60;;;;;;;;;;4860283;29;20284;-62
2023/10/02 09:38:31;;;;;;;6.72;2.35;;;;;;;;;;4846085;29;20211;-63
2023/10/02 09:43:35;;;;;;;5.57;1.98;;;;;;;;;;4845756;29;20550;-63
2023/10/02 09:46:05;;;;;;;8.98;2.42;;;;;;;;;;4846028;29;20212;-58
2023/10/02 09:48:57;;;;;;;6.65;2.47;;;;;;;;;;4845859;29;20215;-64
2023/10/02 09:51:30;;;;;;;7.63;2.55;;;;;;;;;;4857525;29;20742;-63
2023/10/02 09:54:06;;;;;;;10.52;2.85;;;;;;;;;;4845556;29;20248;-63
2023/10/02 09:57:03;;;;;;;7.00;2.03;;;;;;;;;;4845923;29;20279;-63
2023/10/02 09:59:48;;;;;;;7.88;2.30;;;;;;;;;;4844646;29;20206;-63
2023/10/02 10:10:49;;;;;;;11.18;2.83;;;;;;;;;;4844932;29;20292;-60
2023/10/02 10:13:26;;;;;;;7.13;2.40;;;;;;;;;;4845518;29;20207;-63
2023/10/02 10:16:23;;;;;;;6.47;2.03;;;;;;;;;;4845355;29;20270;-64
2023/10/02 10:19:26;;;;;;;8.30;2.40;;;;;;;;;;4845206;29;20211;-60
2023/10/02 10:22:01;;;;;;;13.45;3.03;;;;;;;;;;4845340;29;20215;-60
2023/10/02 10:24:56;;;;;;;10.63;3.03;;;;;;;;;;4845112;29;20698;-62
2023/10/02 10:27:39;;;;;;;5.63;2.45;;;;;;;;;;4845066;29;20235;-59
2023/10/02 10:30:19;;;;;;;10.02;2.60;;;;;;;;;;4845037;29;20207;-64
2023/10/02 10:32:47;;;;;;;9.05;3.05;;;;;;;;;;4844959;29;20207;-63
2023/10/02 10:35:30;;;;;;;14.75;4.20;;;;;;;;;;4844954;29;20208;-62
2023/10/02 10:37:57;;;;;;;15.05;3.80;;;;;;;;;;4844863;29;20564;-64
2023/10/02 10:40:44;;;;;;;6.90;2.95;;;;;;;;;;4845053;29;20212;-64
2023/10/02 10:43:14;;;;;;;11.07;2.88;;;;;;;;;;4845260;29;20286;-63
2023/10/02 10:45:41;;;;;;;8.40;2.50;;;;;;;;;;4844731;29;20207;-64
2023/10/02 10:48:21;;;;;;;13.07;2.80;;;;;;;;;;4844737;29;20227;-62
2023/10/02 10:50:59;;;;;;;6.40;2.13;;;;;;;;;;4843662;29;20239;-63
2023/10/02 10:53:29;;;;;;;7.63;2.58;;;;;;;;;;4844369;29;20704;-64
2023/10/02 10:56:16;;;;;;;4.90;2.35;;;;;;;;;;4844734;29;20234;-64
2023/10/02 10:58:45;;;;;;;7.40;2.72;;;;;;;;;;4844745;29;20215;-64
2023/10/02 11:01:16;;;;;;;10.23;2.47;;;;;;;;;;4844417;29;20219;-64
2023/10/02 11:03:43;;;;;;;6.15;1.95;;;;;;;;;;4843400;29;20207;-61
2023/10/02 11:06:11;;;;;;;6.68;2.00;;;;;;;;;;4844300;29;20256;-63
2023/10/02 11:08:38;;;;;;;8.55;2.70;;;;;;;;;;4858428;29;20234;-62
2023/10/02 11:11:19;;;;;;;6.80;2.40;;;;;;;;;;4844240;29;20240;-64
2023/10/02 11:13:54;;;;;;;12.60;2.97;;;;;;;;;;4843014;29;20272;-64
2023/10/02 11:16:30;;;;;;;8.95;2.38;;;;;;;;;;4844245;29;20211;-64
2023/10/02 11:19:23;;;;;;;10.15;2.20;;;;;;;;;;4844300;29;20218;-62
2023/10/02 11:22:16;;;;;;;5.90;2.30;;;;;;;;;;4843566;29;20218;-63
2023/10/02 11:24:53;;;;;;;11.43;2.30;;;;;;;;;;4844204;29;20207;-64
2023/10/02 11:27:22;;;;;;;6.32;2.40;;;;;;;;;;4844076;29;20280;-65
2023/10/02 11:30:03;;;;;;;5.80;2.00;;;;;;;;;;4843871;29;20211;-64
2023/10/02 11:32:58;;;;;;;6.32;1.90;;;;;;;;;;4844153;29;20238;-61
2023/10/02 11:35:28;;;;;;;7.22;2.13;;;;;;;;;;4843923;29;20669;-64
2023/10/02 11:37:57;;;;;;;6.45;2.65;;;;;;;;;;4843635;29;20215;-63
2023/10/02 11:40:25;;;;;;;10.93;2.47;;;;;;;;;;4843941;29;20208;-64
2023/10/02 11:42:53;;;;;;;6.22;2.45;;;;;;;;;;4843878;29;20214;-64
2023/10/02 11:45:19;;;;;;;9.57;2.38;;;;;;;;;;4843690;29;20216;-64
2023/10/02 11:47:47;;;;;;;5.70;2.08;;;;;;;;;;4843342;29;20224;-63
2023/10/02 11:50:16;;;;;;;7.20;2.38;;;;;;;;;;4843687;29;20222;-62
2023/10/02 11:52:44;;;;;;;10.98;2.40;;;;;;;;;;4843391;29;20608;-64
2023/10/02 11:55:11;;;;;;;6.78;2.22;;;;;;;;;;4843734;29;20559;-59
2023/10/02 11:57:38;;;;;;;7.30;2.10;;;;;;;;;;4843541;29;20208;-64
2023/10/02 12:00:09;;;;;;;8.32;2.20;;;;;;;;;;4843628;29;20211;-62
2023/10/02 12:02:39;;;;;;;9.57;2.33;;;;;;;;;;4843566;29;20211;-62
2023/10/02 12:05:07;;;;;;;14.82;2.47;;;;;;;;;;4842451;29;20217;-65
2023/10/02 12:07:35;;;;;;;7.93;2.40;;;;;;;;;;4842782;29;20207;-65
2023/10/02 12:10:02;;;;;;;13.18;2.47;;;;;;;;;;4843521;29;20254;-64
2023/10/02 12:12:30;;;;;;;6.50;2.33;;;;;;;;;;4843422;29;20235;-63
2023/10/02 12:14:57;;;;;;;6.90;1.88;;;;;;;;;;4843188;29;20203;-60
2023/10/02 12:17:25;;;;;;;7.88;2.72;;;;;;;;;;4843193;29;20275;-64
2023/10/02 12:19:53;;;;;;;6.00;2.60;;;;;;;;;;4843000;29;20207;-64
2023/10/02 12:22:20;;;;;;;6.15;2.50;;;;;;;;;;4857074;29;20703;-62
2023/10/02 12:24:47;;;;;;;14.63;3.10;;;;;;;;;;4843058;29;20211;-64
2023/10/02 12:27:16;;;;;;;7.30;2.50;;;;;;;;;;4843167;29;20211;-63
2023/10/02 12:29:43;;;;;;;9.40;3.00;;;;;;;;;;4843012;29;20215;-59
2023/10/02 12:32:11;;;;;;;7.07;2.08;;;;;;;;;;4841424;29;20246;-64
2023/10/02 12:34:38;;;;;;;8.43;2.65;;;;;;;;;;4837117;29;20279;-60
2023/10/02 12:37:06;;;;;;;10.27;2.67;;;;;;;;;;4842151;29;20239;-64
2023/10/02 12:39:33;;;;;;;7.43;2.78;;;;;;;;;;4841946;29;20590;-65
2023/10/02 12:42:00;;;;;;;8.85;2.53;;;;;;;;;;4841769;29;20243;-61
2023/10/02 12:44:30;;;;;;;7.72;2.90;;;;;;;;;;4850178;29;20220;-64
2023/10/02 12:46:58;;;;;;;9.02;2.55;;;;;;;;;;4842927;29;20239;-61
2023/10/02 12:49:25;;;;;;;10.93;2.50;;;;;;;;;;4842986;29;20227;-63
2023/10/02 12:51:54;;;;;;;9.18;2.70;;;;;;;;;;4847828;29;20235;-59
2023/10/02 12:54:23;;;;;;;11.90;2.97;;;;;;;;;;4849671;29;20275;-63
2023/10/02 12:56:51;;;;;;;5.38;2.25;;;;;;;;;;4850440;29;20564;-62
2023/10/02 12:59:19;;;;;;;7.65;2.72;;;;;;;;;;4841820;29;20231;-61
2023/10/02 13:01:47;;;;;;;6.93;2.67;;;;;;;;;;4838927;29;20227;-57
2023/10/02 13:04:14;;;;;;;24.23;3.13;;;;;;;;;;4843239;29;20231;-57
2023/10/02 13:06:43;;;;;;;7.65;2.50;;;;;;;;;;4847631;29;20218;-61
2023/10/02 13:09:14;;;;;;;6.85;2.72;;;;;;;;;;4836951;29;20348;-61
2023/10/02 13:11:44;;;;;;;7.32;2.90;;;;;;;;;;4839917;29;20243;-64
2023/10/02 13:14:12;;;;;;;7.53;2.83;;;;;;;;;;4840711;29;20242;-59
2023/10/02 13:16:45;;;;;;;9.13;3.10;;;;;;;;;;4840480;29;20231;-63
2023/10/02 13:19:13;;;;;;;6.50;2.50;;;;;;;;;;4843514;29;20250;-60
2023/10/02 13:21:41;;;;;;;9.98;3.10;;;;;;;;;;4841656;29;20219;-60
2023/10/02 13:24:15;;;;;;;5.78;2.72;;;;;;;;;;4840460;29;20280;-58
2023/10/02 13:26:44;;;;;;;8.70;2.40;;;;;;;;;;4840608;29;20222;-62
2023/10/02 13:29:11;;;;;;;7.85;2.70;;;;;;;;;;4840912;29;20238;-61
2023/10/02 13:31:39;;;;;;;10.38;2.67;;;;;;;;;;4839604;29;20619;-66
2023/10/02 13:34:06;;;;;;;4.47;2.47;;;;;;;;;;4839662;29;20227;-62
2023/10/02 13:36:34;;;;;;;10.40;3.00;;;;;;;;;;4839879;29;20628;-62
2023/10/02 13:39:05;;;;;;;9.93;2.80;;;;;;;;;;4840539;29;20272;-60
2023/10/02 13:41:37;;;;;;;8.40;2.75;;;;;;;;;;4840452;29;20300;-61
2023/10/02 13:44:07;;;;;;;13.98;2.80;;;;;;;;;;4841204;29;20826;-64
2023/10/02 13:46:38;;;;;;;18.40;2.45;;;;;;;;;;4844081;29;20227;-56
2023/10/02 13:49:06;;;;;;;7.75;3.60;;;;;;;;;;4844756;29;20259;-63
2023/10/02 13:51:34;;;;;;;7.85;2.88;;;;;;;;;;4844952;29;20242;-61
2023/10/02 13:54:02;;;;;;;8.70;3.00;;;;;;;;;;4845111;29;20316;-65
2023/10/02 13:56:32;;;;;;;8.18;2.22;;;;;;;;;;4844845;29;20231;-64
2023/10/02 13:59:01;;;;;;;9.23;2.45;;;;;;;;;;4846122;29;20227;-63
2023/10/02 14:01:32;;;;;;;9.23;2.65;;;;;;;;;;4844057;29;20227;-62
2023/10/02 14:04:01;;;;;;;5.22;2.50;;;;;;;;;;4844265;29;20238;-65
2023/10/02 14:06:28;;;;;;;9.07;2.72;;;;;;;;;;4844288;29;20716;-59
2023/10/02 14:08:57;;;;;;;6.07;2.20;;;;;;;;;;4844692;29;20640;-59
2023/10/02 14:11:26;;;;;;;7.65;2.83;;;;;;;;;;4866315;29;20220;-59
2023/10/02 14:13:56;;;;;;;8.27;2.72;;;;;;;;;;4826050;29;20289;-63
2023/10/02 14:16:25;;;;;;;4.43;2.50;;;;;;;;;;4825997;29;20583;-65
2023/10/02 14:18:53;;;;;;;7.05;2.90;;;;;;;;;;4840699;29;20235;-59
2023/10/02 14:21:23;;;;;;;5.97;2.53;;;;;;;;;;4844576;29;20291;-64
2023/10/02 14:23:52;;;;;;;13.13;2.58;;;;;;;;;;4844290;29;20234;-65
2023/10/02 14:26:24;;;;;;;9.40;2.72;;;;;;;;;;4844129;29;20235;-63
2023/10/02 14:28:52;;;;;;;4.15;2.03;;;;;;;;;;4844131;29;20706;-63
2023/10/02 14:31:27;;;;;;;8.70;2.95;;;;;;;;;;4843662;29;20234;-66
2023/10/02 14:33:54;;;;;;;9.48;2.83;;;;;;;;;;4843825;29;20243;-64
2023/10/02 14:36:22;;;;;;;9.35;2.63;;;;;;;;;;4843319;29;20586;-66
2023/10/02 14:38:50;;;;;;;6.93;2.50;;;;;;;;;;4842991;29;20224;-66
2023/10/02 14:41:17;;;;;;;6.97;2.13;;;;;;;;;;4841060;29;20593;-64
2023/10/02 14:43:45;;;;;;;7.82;2.60;;;;;;;;;;4844194;29;20326;-64
2023/10/02 14:46:12;;;;;;;4.20;1.83;;;;;;;;;;4842831;29;20231;-60
2023/10/02 14:48:40;;;;;;;6.43;2.50;;;;;;;;;;4842903;29;20243;-65
2023/10/02 14:51:14;;;;;;;7.90;2.17;;;;;;;;;;4843563;29;20658;-62
2023/10/02 14:53:41;;;;;;;5.47;2.38;;;;;;;;;;4844181;29;20276;-62
2023/10/02 14:56:09;;;;;;;5.43;2.30;;;;;;;;;;4842775;29;20235;-65
2023/10/02 14:58:46;;;;;;;3.63;2.08;;;;;;;;;;4843384;29;20244;-61
2023/10/02 15:01:16;;;;;;;4.38;2.50;;;;;;;;;;4841063;29;20712;-62
2023/10/02 15:03:50;;;;;;;4.53;2.10;;;;;;;;;;4842864;29;20741;-64
2023/10/02 15:06:17;;;;;;;3.85;2.50;;;;;;;;;;4842910;29;20720;-66
2023/10/02 15:08:44;;;;;;;7.40;2.33;;;;;;;;;;4856220;29;20227;-62
2023/10/02 15:11:13;;;;;;;8.85;3.20;;;;;;;;;;4842876;29;20238;-63
2023/10/02 15:13:43;;;;;;;4.72;2.50;;;;;;;;;;4842787;29;20270;-66
2023/10/02 15:16:17;;;;;;;11.30;3.13;;;;;;;;;;4843195;29;20245;-63
2023/10/02 15:18:48;;;;;;;11.45;2.60;;;;;;;;;;4843113;29;20238;-63
2023/10/02 15:21:16;;;;;;;6.68;2.47;;;;;;;;;;4842977;29;20314;-62
2023/10/02 15:23:44;;;;;;;7.43;3.08;;;;;;;;;;4843544;29;20204;-65
2023/10/02 15:26:12;;;;;;;13.57;2.72;;;;;;;;;;4843425;29;20203;-64
2023/10/02 15:28:39;;;;;;;5.72;2.58;;;;;;;;;;4843460;29;20195;-65
2023/10/02 15:31:07;;;;;;;7.63;2.45;;;;;;;;;;4843544;29;20752;-60
2023/10/02 15:33:39;;;;;;;9.32;2.80;;;;;;;;;;4841363;29;20280;-64
2023/10/02 15:36:08;;;;;;;7.90;3.10;;;;;;;;;;4844360;29;20211;-61
2023/10/02 15:38:37;;;;;;;5.07;2.50;;;;;;;;;;4843907;29;20211;-64
2023/10/02 15:41:07;;;;;;;6.22;3.00;;;;;;;;;;4843455;29;20299;-64
2023/10/02 15:43:37;;;;;;;5.85;2.85;;;;;;;;;;4857310;29;20290;-64
2023/10/02 15:46:04;;;;;;;9.95;3.47;;;;;;;;;;4842002;29;20219;-63
2023/10/02 15:48:34;;;;;;;5.78;2.60;;;;;;;;;;4839462;29;20208;-63
2023/10/02 15:51:02;;;;;;;7.45;2.97;;;;;;;;;;4836867;29;20315;-62
2023/10/02 15:53:29;;;;;;;6.50;2.60;;;;;;;;;;4856497;29;20251;-64
2023/10/02 15:55:56;;;;;;;8.75;2.45;;;;;;;;;;4840358;29;20235;-66
2023/10/02 15:58:23;;;;;;;6.35;2.70;;;;;;;;;;4842078;29;20242;-63